sensor_id;sensor_type;location;lat;lon;timestamp;pressure;altitude;pressure_sealevel;temperature;humidity
3132;BME280;62090;52.330;9.104;2023-02-28T00:00:36;102587.69;;;1.95;80.27
3132;BME280;62090;52.330;9.104;2023-02-28T00:03:09;102571.69;;;1.76;80.73
3132;BME280;62090;52.330;9.104;2023-02-28T00:05:38;102591.06;;;1.77;81.54
3132;BME280;62090;52.330;9.104;2023-02-28T00:08:08;102598.34;;;1.74;81.98
3132;BME280;62090;52.330;9.104;2023-02-28T00:10:39;102599.47;;;1.77;82.59
3132;BME280;62090;52.330;9.104;2023-02-28T00:13:09;102545.88;;;1.49;82.40
3132;BME280;62090;52.330;9.104;2023-02-28T00:15:39;102597.16;;;1.70;81.71
3132;BME280;62090;52.330;9.104;2023-02-28T00:18:12;102608.50;;;1.75;81.80
3132;BME280;62090;52.330;9.104;2023-02-28T00:20:41;102579.84;;;1.54;82.87
3132;BME280;62090;52.330;9.104;2023-02-28T00:23:11;102597.63;;;1.66;82.58
3132;BME280;62090;52.330;9.104;2023-02-28T00:25:41;102597.00;;;1.50;82.53
3132;BME280;62090;52.330;9.104;2023-02-28T00:28:11;102547.59;;;1.13;83.07
3132;BME280;62090;52.330;9.104;2023-02-28T00:30:40;102587.81;;;1.32;82.99
3132;BME280;62090;52.330;9.104;2023-02-28T00:33:13;102580.41;;;1.33;82.22
3132;BME280;62090;52.330;9.104;2023-02-28T00:35:43;102470.88;;;0.52;83.31
3132;BME280;62090;52.330;9.104;2023-02-28T00:38:13;102582.16;;;1.15;83.51
3132;BME280;62090;52.330;9.104;2023-02-28T00:40:43;102504.16;;;0.59;84.35
3132;BME280;62090;52.330;9.104;2023-02-28T00:43:13;102434.84;;;0.24;84.58
3132;BME280;62090;52.330;9.104;2023-02-28T00:45:44;102499.16;;;0.59;84.56
3132;BME280;62090;52.330;9.104;2023-02-28T00:48:16;102558.34;;;0.93;85.78
3132;BME280;62090;52.330;9.104;2023-02-28T00:50:48;102596.59;;;1.18;85.65
3132;BME280;62090;52.330;9.104;2023-02-28T00:53:17;102560.00;;;1.11;85.71
3132;BME280;62090;52.330;9.104;2023-02-28T00:55:48;102611.41;;;1.42;85.70
3132;BME280;62090;52.330;9.104;2023-02-28T00:58:18;102595.28;;;1.40;85.63
3132;BME280;62090;52.330;9.104;2023-02-28T01:00:47;102598.03;;;1.52;84.56
3132;BME280;62090;52.330;9.104;2023-02-28T01:03:21;102561.75;;;1.40;83.59
3132;BME280;62090;52.330;9.104;2023-02-28T01:05:51;102588.00;;;1.52;83.40
3132;BME280;62090;52.330;9.104;2023-02-28T01:08:23;102528.94;;;1.19;83.31
3132;BME280;62090;52.330;9.104;2023-02-28T01:10:52;102570.91;;;1.39;83.12
3132;BME280;62090;52.330;9.104;2023-02-28T01:13:23;102584.66;;;1.43;83.75
3132;BME280;62090;52.330;9.104;2023-02-28T01:15:55;102465.88;;;0.79;83.04
3132;BME280;62090;52.330;9.104;2023-02-28T01:18:27;102549.94;;;1.20;82.96
3132;BME280;62090;52.330;9.104;2023-02-28T01:20:58;102610.31;;;1.49;82.90
3132;BME280;62090;52.330;9.104;2023-02-28T01:23:27;102583.88;;;1.25;82.34
3132;BME280;62090;52.330;9.104;2023-02-28T01:25:57;102594.22;;;1.19;83.40
3132;BME280;62090;52.330;9.104;2023-02-28T01:28:27;102549.53;;;0.79;83.57
3132;BME280;62090;52.330;9.104;2023-02-28T01:30:57;102609.94;;;1.08;84.97
3132;BME280;62090;52.330;9.104;2023-02-28T01:33:29;102613.81;;;1.05;85.30
3132;BME280;62090;52.330;9.104;2023-02-28T01:35:59;102566.53;;;0.73;85.34
3132;BME280;62090;52.330;9.104;2023-02-28T01:38:30;102608.22;;;0.99;86.50
3132;BME280;62090;52.330;9.104;2023-02-28T01:41:00;102543.88;;;0.63;85.66
3132;BME280;62090;52.330;9.104;2023-02-28T01:43:31;102598.03;;;0.97;86.24
3132;BME280;62090;52.330;9.104;2023-02-28T01:46:01;102543.88;;;0.63;86.67
3132;BME280;62090;52.330;9.104;2023-02-28T01:48:36;102584.22;;;0.83;85.94
3132;BME280;62090;52.330;9.104;2023-02-28T01:51:11;102601.41;;;0.98;86.75
3132;BME280;62090;52.330;9.104;2023-02-28T01:53:45;102546.38;;;0.63;86.72
3132;BME280;62090;52.330;9.104;2023-02-28T01:56:18;102595.41;;;0.87;86.64
3132;BME280;62090;52.330;9.104;2023-02-28T01:58:50;102585.84;;;0.83;86.21
3132;BME280;62090;52.330;9.104;2023-02-28T02:01:23;102456.81;;;0.18;86.03
3132;BME280;62090;52.330;9.104;2023-02-28T02:04:01;102591.34;;;1.06;86.18
3132;BME280;62090;52.330;9.104;2023-02-28T02:06:37;102602.91;;;1.23;85.89
3132;BME280;62090;52.330;9.104;2023-02-28T02:09:09;102566.13;;;1.05;85.20
3132;BME280;62090;52.330;9.104;2023-02-28T02:11:40;102586.19;;;1.32;85.14
3132;BME280;62090;52.330;9.104;2023-02-28T02:14:37;102583.22;;;1.36;83.46
3132;BME280;62090;52.330;9.104;2023-02-28T02:17:18;102545.81;;;1.12;84.11
3132;BME280;62090;52.330;9.104;2023-02-28T02:20:16;102555.69;;;1.19;83.91
3132;BME280;62090;52.330;9.104;2023-02-28T02:23:06;102589.53;;;1.41;83.88
3132;BME280;62090;52.330;9.104;2023-02-28T02:25:42;102518.34;;;0.95;83.88
3132;BME280;62090;52.330;9.104;2023-02-28T02:31:25;102570.91;;;1.20;83.45
3132;BME280;62090;52.330;9.104;2023-02-28T02:34:26;102555.88;;;1.12;83.18
3132;BME280;62090;52.330;9.104;2023-02-28T02:37:03;102596.25;;;1.32;83.85
3132;BME280;62090;52.330;9.104;2023-02-28T02:39:42;102592.22;;;1.34;83.76
3132;BME280;62090;52.330;9.104;2023-02-28T02:42:18;102608.34;;;1.36;83.68
3132;BME280;62090;52.330;9.104;2023-02-28T02:44:56;102544.44;;;0.97;83.68
3132;BME280;62090;52.330;9.104;2023-02-28T02:47:30;102555.72;;;0.83;84.55
3132;BME280;62090;52.330;9.104;2023-02-28T02:50:07;102526.88;;;0.61;84.60
3132;BME280;62090;52.330;9.104;2023-02-28T02:52:41;102581.72;;;0.75;85.27
3132;BME280;62090;52.330;9.104;2023-02-28T02:55:13;102577.31;;;0.72;85.52
3132;BME280;62090;52.330;9.104;2023-02-28T02:57:47;102586.47;;;0.72;85.59
3132;BME280;62090;52.330;9.104;2023-02-28T03:00:22;102588.25;;;0.73;85.83
3132;BME280;62090;52.330;9.104;2023-02-28T03:02:54;102582.66;;;0.67;85.05
3132;BME280;62090;52.330;9.104;2023-02-28T03:05:30;102598.09;;;0.80;86.16
3132;BME280;62090;52.330;9.104;2023-02-28T03:08:03;102496.34;;;0.20;86.50
3132;BME280;62090;52.330;9.104;2023-02-28T03:10:36;102556.09;;;0.60;85.83
3132;BME280;62090;52.330;9.104;2023-02-28T03:13:41;102579.53;;;0.69;84.65
3132;BME280;62090;52.330;9.104;2023-02-28T03:16:27;102596.47;;;0.80;84.41
3132;BME280;62090;52.330;9.104;2023-02-28T03:19:03;102593.09;;;0.71;84.52
3132;BME280;62090;52.330;9.104;2023-02-28T03:21:43;102566.28;;;0.53;84.20
3132;BME280;62090;52.330;9.104;2023-02-28T03:24:18;102436.88;;;-0.17;84.45
3132;BME280;62090;52.330;9.104;2023-02-28T03:26:55;102542.03;;;0.35;85.12
3132;BME280;62090;52.330;9.104;2023-02-28T03:29:34;102597.53;;;0.65;85.53
3132;BME280;62090;52.330;9.104;2023-02-28T03:32:10;102532.88;;;0.27;85.59
3132;BME280;62090;52.330;9.104;2023-02-28T03:34:48;102593.63;;;0.41;86.54
3132;BME280;62090;52.330;9.104;2023-02-28T03:37:24;102531.75;;;0.06;87.01
3132;BME280;62090;52.330;9.104;2023-02-28T03:39:59;102577.16;;;0.26;87.25
3132;BME280;62090;52.330;9.104;2023-02-28T03:42:35;102546.19;;;0.17;86.64
3132;BME280;62090;52.330;9.104;2023-02-28T03:45:11;102586.84;;;0.32;86.05
3132;BME280;62090;52.330;9.104;2023-02-28T03:47:46;102543.56;;;-0.02;86.19
3132;BME280;62090;52.330;9.104;2023-02-28T03:50:21;102549.00;;;-0.14;86.97
3132;BME280;62090;52.330;9.104;2023-02-28T03:52:58;102582.59;;;0.14;87.11
3132;BME280;62090;52.330;9.104;2023-02-28T03:55:36;102552.25;;;0.02;86.47
3132;BME280;62090;52.330;9.104;2023-02-28T03:58:14;102562.25;;;0.11;85.71
3132;BME280;62090;52.330;9.104;2023-02-28T04:00:46;102590.53;;;0.27;85.51
3132;BME280;62090;52.330;9.104;2023-02-28T04:03:18;102574.78;;;0.11;84.33
3132;BME280;62090;52.330;9.104;2023-02-28T04:05:50;102577.16;;;0.09;84.46
3132;BME280;62090;52.330;9.104;2023-02-28T04:08:24;102597.19;;;0.18;84.49
3132;BME280;62090;52.330;9.104;2023-02-28T04:10:57;102605.75;;;0.20;84.54
3132;BME280;62090;52.330;9.104;2023-02-28T04:13:30;102529.13;;;-0.30;84.08
3132;BME280;62090;52.330;9.104;2023-02-28T04:15:59;102605.44;;;0.17;84.38
3132;BME280;62090;52.330;9.104;2023-02-28T04:18:47;102589.97;;;0.12;83.59
3132;BME280;62090;52.330;9.104;2023-02-28T04:21:17;102552.41;;;-0.14;83.30
3132;BME280;62090;52.330;9.104;2023-02-28T04:23:51;102597.66;;;0.14;83.03
3132;BME280;62090;52.330;9.104;2023-02-28T04:26:21;102597.50;;;0.12;82.99
3132;BME280;62090;52.330;9.104;2023-02-28T04:28:50;102596.00;;;0.06;82.96
3132;BME280;62090;52.330;9.104;2023-02-28T04:31:20;102588.50;;;-0.03;83.90
3132;BME280;62090;52.330;9.104;2023-02-28T04:33:50;102591.91;;;-0.03;84.16
3132;BME280;62090;52.330;9.104;2023-02-28T04:36:20;102527.09;;;-0.43;84.47
3132;BME280;62090;52.330;9.104;2023-02-28T04:38:52;102589.84;;;-0.24;85.78
3132;BME280;62090;52.330;9.104;2023-02-28T04:41:22;102563.59;;;-0.36;86.17
3132;BME280;62090;52.330;9.104;2023-02-28T04:43:55;102522.91;;;-0.68;86.44
3132;BME280;62090;52.330;9.104;2023-02-28T04:46:25;102513.66;;;-0.69;86.35
3132;BME280;62090;52.330;9.104;2023-02-28T04:48:55;102593.97;;;-0.24;85.00
3132;BME280;62090;52.330;9.104;2023-02-28T04:51:24;102604.28;;;-0.13;84.71
3132;BME280;62090;52.330;9.104;2023-02-28T04:53:57;102600.31;;;-0.11;84.28
3132;BME280;62090;52.330;9.104;2023-02-28T04:56:27;102571.84;;;-0.28;84.57
3132;BME280;62090;52.330;9.104;2023-02-28T04:58:57;102592.94;;;-0.18;83.96
3132;BME280;62090;52.330;9.104;2023-02-28T05:01:28;102597.22;;;-0.17;83.46
3132;BME280;62090;52.330;9.104;2023-02-28T05:04:00;102558.88;;;-0.42;83.03
3132;BME280;62090;52.330;9.104;2023-02-28T05:06:32;102570.97;;;-0.29;82.99
3132;BME280;62090;52.330;9.104;2023-02-28T05:09:05;102560.38;;;-0.44;82.77
3132;BME280;62090;52.330;9.104;2023-02-28T05:11:35;102557.41;;;-0.48;82.56
3132;BME280;62090;52.330;9.104;2023-02-28T05:14:09;102459.44;;;-0.94;81.85
3132;BME280;62090;52.330;9.104;2023-02-28T05:16:41;102486.38;;;-0.83;81.39
3132;BME280;62090;52.330;9.104;2023-02-28T05:19:11;102570.94;;;-0.46;81.67
3132;BME280;62090;52.330;9.104;2023-02-28T05:21:41;102608.41;;;-0.13;81.21
3132;BME280;62090;52.330;9.104;2023-02-28T05:24:20;102501.72;;;-0.80;80.88
3132;BME280;62090;52.330;9.104;2023-02-28T05:26:53;102569.78;;;-0.41;81.22
3132;BME280;62090;52.330;9.104;2023-02-28T05:29:23;102578.34;;;-0.39;80.92
3132;BME280;62090;52.330;9.104;2023-02-28T05:31:52;102413.00;;;-1.42;80.55
3132;BME280;62090;52.330;9.104;2023-02-28T05:34:22;102492.41;;;-0.98;80.41
3132;BME280;62090;52.330;9.104;2023-02-28T05:36:52;102555.59;;;-0.66;80.67
3132;BME280;62090;52.330;9.104;2023-02-28T05:39:24;102514.06;;;-0.90;80.58
3132;BME280;62090;52.330;9.104;2023-02-28T05:41:54;102588.63;;;-0.53;81.46
3132;BME280;62090;52.330;9.104;2023-02-28T05:44:24;102613.41;;;-0.39;81.23
3132;BME280;62090;52.330;9.104;2023-02-28T05:46:54;102582.13;;;-0.60;81.17
3132;BME280;62090;52.330;9.104;2023-02-28T05:49:23;102595.81;;;-0.65;81.58
3132;BME280;62090;52.330;9.104;2023-02-28T05:51:53;102585.94;;;-0.72;81.94
3132;BME280;62090;52.330;9.104;2023-02-28T05:54:26;102547.28;;;-1.00;82.17
3132;BME280;62090;52.330;9.104;2023-02-28T05:56:55;102589.31;;;-0.71;81.92
3132;BME280;62090;52.330;9.104;2023-02-28T05:59:25;102471.53;;;-1.40;82.40
3132;BME280;62090;52.330;9.104;2023-02-28T06:01:55;102578.53;;;-0.88;82.79
3132;BME280;62090;52.330;9.104;2023-02-28T06:04:24;102626.59;;;-0.66;82.43
3132;BME280;62090;52.330;9.104;2023-02-28T06:06:57;102574.94;;;-1.07;82.12
3132;BME280;62090;52.330;9.104;2023-02-28T06:09:31;102508.16;;;-1.32;81.35
3132;BME280;62090;52.330;9.104;2023-02-28T06:12:02;102612.72;;;-0.79;81.55
3132;BME280;62090;52.330;9.104;2023-02-28T06:14:34;102612.38;;;-0.91;82.49
3132;BME280;62090;52.330;9.104;2023-02-28T06:17:04;102491.16;;;-1.60;83.20
3132;BME280;62090;52.330;9.104;2023-02-28T06:19:33;102585.69;;;-0.99;82.91
3132;BME280;62090;52.330;9.104;2023-02-28T06:22:05;102607.22;;;-0.84;82.21
3132;BME280;62090;52.330;9.104;2023-02-28T06:24:37;102628.31;;;-0.73;81.25
3132;BME280;62090;52.330;9.104;2023-02-28T06:27:07;102587.31;;;-1.00;81.31
3132;BME280;62090;52.330;9.104;2023-02-28T06:29:40;102613.00;;;-0.85;80.42
3132;BME280;62090;52.330;9.104;2023-02-28T06:32:09;102636.59;;;-0.74;80.30
3132;BME280;62090;52.330;9.104;2023-02-28T06:34:39;102635.25;;;-0.71;79.99
3132;BME280;62090;52.330;9.104;2023-02-28T06:37:09;102562.09;;;-1.10;79.54
3132;BME280;62090;52.330;9.104;2023-02-28T06:39:41;102628.63;;;-0.70;79.93
3132;BME280;62090;52.330;9.104;2023-02-28T06:42:11;102625.06;;;-0.81;80.15
3132;BME280;62090;52.330;9.104;2023-02-28T06:44:40;102614.28;;;-0.89;80.87
3132;BME280;62090;52.330;9.104;2023-02-28T06:47:10;102591.41;;;-1.09;81.27
3132;BME280;62090;52.330;9.104;2023-02-28T06:49:40;102627.84;;;-0.87;81.46
3132;BME280;62090;52.330;9.104;2023-02-28T06:52:11;102583.16;;;-1.08;82.41
3132;BME280;62090;52.330;9.104;2023-02-28T06:54:44;102521.69;;;-1.39;82.76
3132;BME280;62090;52.330;9.104;2023-02-28T06:57:13;102647.19;;;-0.68;83.36
3132;BME280;62090;52.330;9.104;2023-02-28T06:59:43;102653.50;;;-0.72;83.76
3132;BME280;62090;52.330;9.104;2023-02-28T07:02:13;102655.31;;;-0.62;84.13
3132;BME280;62090;52.330;9.104;2023-02-28T07:04:43;102641.34;;;-0.60;83.23
3132;BME280;62090;52.330;9.104;2023-02-28T07:07:13;102667.88;;;-0.36;82.38
3132;BME280;62090;52.330;9.104;2023-02-28T07:09:45;102649.91;;;-0.41;82.27
3132;BME280;62090;52.330;9.104;2023-02-28T07:12:15;102639.56;;;-0.61;82.56
3132;BME280;62090;52.330;9.104;2023-02-28T07:14:44;102437.00;;;-1.68;82.45
3132;BME280;62090;52.330;9.104;2023-02-28T07:17:14;102624.84;;;-0.58;83.31
3132;BME280;62090;52.330;9.104;2023-02-28T07:19:46;102664.81;;;-0.34;83.18
3132;BME280;62090;52.330;9.104;2023-02-28T07:22:16;102579.16;;;-0.73;82.58
3132;BME280;62090;52.330;9.104;2023-02-28T07:24:48;102685.34;;;-0.04;82.71
3132;BME280;62090;52.330;9.104;2023-02-28T07:27:18;102552.66;;;-0.71;82.65
3132;BME280;62090;52.330;9.104;2023-02-28T07:29:53;102513.63;;;-0.86;82.29
3132;BME280;62090;52.330;9.104;2023-02-28T07:32:23;102677.09;;;0.06;82.09
3132;BME280;62090;52.330;9.104;2023-02-28T07:34:52;102639.38;;;-0.13;82.44
3132;BME280;62090;52.330;9.104;2023-02-28T07:37:22;102703.81;;;0.23;82.62
3132;BME280;62090;52.330;9.104;2023-02-28T07:39:54;102678.72;;;0.23;82.70
3132;BME280;62090;52.330;9.104;2023-02-28T07:42:24;102699.69;;;0.40;82.94
3132;BME280;62090;52.330;9.104;2023-02-28T07:44:56;102701.59;;;0.52;82.87
3132;BME280;62090;52.330;9.104;2023-02-28T07:47:29;102521.47;;;-0.49;82.89
3132;BME280;62090;52.330;9.104;2023-02-28T07:50:00;102618.72;;;0.24;82.77
3132;BME280;62090;52.330;9.104;2023-02-28T07:52:34;102631.97;;;0.32;83.19
3132;BME280;62090;52.330;9.104;2023-02-28T07:55:09;102550.50;;;-0.08;83.72
3132;BME280;62090;52.330;9.104;2023-02-28T07:57:40;102678.44;;;0.63;84.16
3132;BME280;62090;52.330;9.104;2023-02-28T08:00:11;102643.63;;;0.57;84.11
3132;BME280;62090;52.330;9.104;2023-02-28T08:02:41;102559.16;;;0.13;83.71
3132;BME280;62090;52.330;9.104;2023-02-28T08:05:14;102684.00;;;0.77;84.59
3132;BME280;62090;52.330;9.104;2023-02-28T08:07:48;102661.59;;;0.62;84.71
3132;BME280;62090;52.330;9.104;2023-02-28T08:10:22;102616.78;;;0.39;85.81
3132;BME280;62090;52.330;9.104;2023-02-28T08:12:52;102526.91;;;-0.10;86.06
3132;BME280;62090;52.330;9.104;2023-02-28T08:15:22;102527.03;;;0.00;85.85
3132;BME280;62090;52.330;9.104;2023-02-28T08:17:52;102574.88;;;0.38;86.27
3132;BME280;62090;52.330;9.104;2023-02-28T08:20:23;102564.59;;;0.35;86.65
3132;BME280;62090;52.330;9.104;2023-02-28T08:22:53;102677.25;;;1.12;86.68
3132;BME280;62090;52.330;9.104;2023-02-28T08:25:25;102509.91;;;0.14;86.75
3132;BME280;62090;52.330;9.104;2023-02-28T08:27:55;102678.56;;;1.17;87.06
3132;BME280;62090;52.330;9.104;2023-02-28T08:30:25;102589.41;;;0.76;87.16
3132;BME280;62090;52.330;9.104;2023-02-28T08:32:57;102668.63;;;1.27;86.61
3132;BME280;62090;52.330;9.104;2023-02-28T08:35:28;102583.00;;;0.89;85.28
3132;BME280;62090;52.330;9.104;2023-02-28T08:37:58;102675.81;;;1.42;83.19
3132;BME280;62090;52.330;9.104;2023-02-28T08:40:30;102648.22;;;1.33;80.67
3132;BME280;62090;52.330;9.104;2023-02-28T08:43:00;102656.16;;;1.38;81.03
3132;BME280;62090;52.330;9.104;2023-02-28T08:45:30;102538.91;;;0.82;80.68
3132;BME280;62090;52.330;9.104;2023-02-28T08:48:00;102661.84;;;1.54;80.51
3132;BME280;62090;52.330;9.104;2023-02-28T08:50:29;102550.66;;;0.92;79.93
3132;BME280;62090;52.330;9.104;2023-02-28T08:52:59;102639.03;;;1.42;79.95
3132;BME280;62090;52.330;9.104;2023-02-28T08:55:31;102692.84;;;1.90;79.91
3132;BME280;62090;52.330;9.104;2023-02-28T08:58:01;102604.31;;;1.38;79.71
3132;BME280;62090;52.330;9.104;2023-02-28T09:00:34;102666.59;;;1.78;79.61
3132;BME280;62090;52.330;9.104;2023-02-28T09:03:06;102676.25;;;1.92;79.75
3132;BME280;62090;52.330;9.104;2023-02-28T09:05:36;102656.47;;;1.87;80.51
3132;BME280;62090;52.330;9.104;2023-02-28T09:08:06;102675.09;;;2.07;80.34
3132;BME280;62090;52.330;9.104;2023-02-28T09:10:38;102679.59;;;2.20;80.58
3132;BME280;62090;52.330;9.104;2023-02-28T09:13:08;102627.13;;;1.96;80.30
3132;BME280;62090;52.330;9.104;2023-02-28T09:15:37;102669.47;;;2.47;77.50
3132;BME280;62090;52.330;9.104;2023-02-28T09:18:07;102614.28;;;2.30;76.84
3132;BME280;62090;52.330;9.104;2023-02-28T09:20:37;102659.00;;;2.72;76.06
3132;BME280;62090;52.330;9.104;2023-02-28T09:23:08;102690.09;;;3.01;76.35
3132;BME280;62090;52.330;9.104;2023-02-28T09:25:45;102674.75;;;3.08;75.29
3132;BME280;62090;52.330;9.104;2023-02-28T09:28:16;102702.91;;;3.33;73.71
3132;BME280;62090;52.330;9.104;2023-02-28T09:30:47;102685.28;;;3.33;73.91
3132;BME280;62090;52.330;9.104;2023-02-28T09:33:18;102614.44;;;2.71;74.13
3132;BME280;62090;52.330;9.104;2023-02-28T09:35:49;102704.09;;;4.07;71.50
3132;BME280;62090;52.330;9.104;2023-02-28T09:38:19;102656.56;;;3.51;72.39
3132;BME280;62090;52.330;9.104;2023-02-28T09:40:53;102689.97;;;3.69;71.59
3132;BME280;62090;52.330;9.104;2023-02-28T09:43:25;102648.84;;;3.39;71.49
3132;BME280;62090;52.330;9.104;2023-02-28T09:46:00;102650.91;;;3.44;71.52
3132;BME280;62090;52.330;9.104;2023-02-28T09:48:35;102709.66;;;3.73;71.61
3132;BME280;62090;52.330;9.104;2023-02-28T09:51:26;102538.34;;;2.83;72.07
3132;BME280;62090;52.330;9.104;2023-02-28T09:53:57;102688.59;;;3.72;73.45
3132;BME280;62090;52.330;9.104;2023-02-28T09:56:33;102687.19;;;3.66;72.51
3132;BME280;62090;52.330;9.104;2023-02-28T09:59:11;102672.69;;;3.53;72.06
3132;BME280;62090;52.330;9.104;2023-02-28T10:01:49;102611.78;;;3.28;70.16
3132;BME280;62090;52.330;9.104;2023-02-28T10:04:37;102591.16;;;3.22;69.66
3132;BME280;62090;52.330;9.104;2023-02-28T10:07:18;102497.53;;;2.77;69.07
3132;BME280;62090;52.330;9.104;2023-02-28T10:09:55;102677.00;;;3.85;69.75
3132;BME280;62090;52.330;9.104;2023-02-28T10:12:30;102677.22;;;3.98;68.88
3132;BME280;62090;52.330;9.104;2023-02-28T10:15:01;102691.59;;;4.09;69.60
3132;BME280;62090;52.330;9.104;2023-02-28T10:17:37;102626.94;;;3.89;68.92
3132;BME280;62090;52.330;9.104;2023-02-28T10:20:27;102654.91;;;3.92;68.96
3132;BME280;62090;52.330;9.104;2023-02-28T10:23:07;102716.69;;;4.38;69.04
3132;BME280;62090;52.330;9.104;2023-02-28T10:25:40;102672.31;;;4.09;67.61
3132;BME280;62090;52.330;9.104;2023-02-28T10:28:19;102572.00;;;3.75;68.06
3132;BME280;62090;52.330;9.104;2023-02-28T10:30:56;102657.16;;;4.19;67.56
3132;BME280;62090;52.330;9.104;2023-02-28T10:33:31;102706.78;;;4.61;68.29
3132;BME280;62090;52.330;9.104;2023-02-28T10:36:05;102624.91;;;3.95;68.45
3132;BME280;62090;52.330;9.104;2023-02-28T10:38:49;102713.22;;;4.57;68.41
3132;BME280;62090;52.330;9.104;2023-02-28T10:41:33;102712.56;;;4.70;67.05
3132;BME280;62090;52.330;9.104;2023-02-28T10:44:20;102688.59;;;4.65;67.72
3132;BME280;62090;52.330;9.104;2023-02-28T10:46:51;102602.53;;;4.20;67.61
3132;BME280;62090;52.330;9.104;2023-02-28T10:49:23;102692.97;;;4.78;66.55
3132;BME280;62090;52.330;9.104;2023-02-28T10:51:55;102648.13;;;4.53;66.88
3132;BME280;62090;52.330;9.104;2023-02-28T10:54:30;102554.28;;;4.05;67.26
3132;BME280;62090;52.330;9.104;2023-02-28T10:57:11;102601.22;;;4.35;66.94
3132;BME280;62090;52.330;9.104;2023-02-28T10:59:50;102636.34;;;4.64;66.04
3132;BME280;62090;52.330;9.104;2023-02-28T11:02:30;102630.00;;;4.69;66.22
3132;BME280;62090;52.330;9.104;2023-02-28T11:05:01;102628.09;;;4.66;67.08
3132;BME280;62090;52.330;9.104;2023-02-28T11:08:00;102378.50;;;3.30;65.90
3132;BME280;62090;52.330;9.104;2023-02-28T11:10:46;102687.13;;;5.10;66.15
3132;BME280;62090;52.330;9.104;2023-02-28T11:13:17;102670.50;;;5.02;65.27
3132;BME280;62090;52.330;9.104;2023-02-28T11:15:54;102647.28;;;4.75;64.87
3132;BME280;62090;52.330;9.104;2023-02-28T11:18:28;102648.78;;;4.73;65.12
3132;BME280;62090;52.330;9.104;2023-02-28T11:20:59;102501.34;;;3.95;64.07
3132;BME280;62090;52.330;9.104;2023-02-28T11:23:34;102545.81;;;4.37;63.38
3132;BME280;62090;52.330;9.104;2023-02-28T11:26:06;102597.44;;;4.62;62.36
3132;BME280;62090;52.330;9.104;2023-02-28T11:28:39;102590.06;;;4.75;62.70
3132;BME280;62090;52.330;9.104;2023-02-28T11:31:18;102567.69;;;4.58;62.84
3132;BME280;62090;52.330;9.104;2023-02-28T11:33:50;102664.19;;;5.07;63.67
3132;BME280;62090;52.330;9.104;2023-02-28T11:36:24;102442.09;;;3.90;63.18
3132;BME280;62090;52.330;9.104;2023-02-28T11:38:56;102650.41;;;5.26;62.51
3132;BME280;62090;52.330;9.104;2023-02-28T11:41:38;102560.28;;;4.71;60.54
3132;BME280;62090;52.330;9.104;2023-02-28T11:44:21;102663.44;;;5.42;60.17
3132;BME280;62090;52.330;9.104;2023-02-28T11:46:59;102451.38;;;4.45;60.35
3132;BME280;62090;52.330;9.104;2023-02-28T11:49:39;102600.03;;;5.39;60.21
3132;BME280;62090;52.330;9.104;2023-02-28T11:52:20;102473.94;;;4.87;60.61
3132;BME280;62090;52.330;9.104;2023-02-28T11:55:04;102549.78;;;5.43;60.55
3132;BME280;62090;52.330;9.104;2023-02-28T11:58:04;102647.66;;;5.89;60.17
3132;BME280;62090;52.330;9.104;2023-02-28T12:00:43;102614.97;;;5.81;60.27
3132;BME280;62090;52.330;9.104;2023-02-28T12:03:36;102615.28;;;5.74;59.33
3132;BME280;62090;52.330;9.104;2023-02-28T12:06:23;102579.16;;;5.53;58.31
3132;BME280;62090;52.330;9.104;2023-02-28T12:09:02;102609.66;;;5.78;57.32
3132;BME280;62090;52.330;9.104;2023-02-28T12:11:40;102600.16;;;6.09;59.73
3132;BME280;62090;52.330;9.104;2023-02-28T12:14:25;102604.09;;;5.93;57.48
3132;BME280;62090;52.330;9.104;2023-02-28T12:17:04;102620.84;;;5.91;57.51
3132;BME280;62090;52.330;9.104;2023-02-28T12:19:43;102549.38;;;5.49;57.97
3132;BME280;62090;52.330;9.104;2023-02-28T12:22:34;102564.69;;;5.74;58.05
3132;BME280;62090;52.330;9.104;2023-02-28T12:28:12;102575.56;;;5.73;54.62
3132;BME280;62090;52.330;9.104;2023-02-28T12:30:52;102581.88;;;5.89;55.88
3132;BME280;62090;52.330;9.104;2023-02-28T12:33:26;102555.69;;;5.89;54.72
3132;BME280;62090;52.330;9.104;2023-02-28T12:36:05;102604.13;;;6.17;53.82
3132;BME280;62090;52.330;9.104;2023-02-28T12:38:42;102581.56;;;5.97;53.96
3132;BME280;62090;52.330;9.104;2023-02-28T12:41:16;102566.59;;;6.00;53.92
3132;BME280;62090;52.330;9.104;2023-02-28T12:43:52;102576.84;;;6.01;53.12
3132;BME280;62090;52.330;9.104;2023-02-28T12:46:30;102557.78;;;5.94;53.77
3132;BME280;62090;52.330;9.104;2023-02-28T12:52:51;102253.97;;;4.37;53.04
3132;BME280;62090;52.330;9.104;2023-02-28T16:12:35;102197.91;;;4.64;56.56
3132;BME280;62090;52.330;9.104;2023-02-28T22:06:39;102255.03;;;-1.21;79.47
3132;BME280;62090;52.330;9.104;2023-02-28T22:10:20;102444.28;;;-0.27;80.70
3132;BME280;62090;52.330;9.104;2023-02-28T23:35:44;102455.94;;;-0.53;77.48
3132;BME280;62090;52.330;9.104;2023-02-28T23:46:37;102591.31;;;0.26;78.69
